sensor_id;sensor_type;location;lat;lon;timestamp;P1;durP1;ratioP1;P2;durP2;ratioP2
21022;SDS011;10669;51.076;3.714;2022-08-19T00:01:38;51.17;;;32.55;;
21022;SDS011;10669;51.076;3.714;2022-08-19T00:04:07;52.58;;;31.95;;
21022;SDS011;10669;51.076;3.714;2022-08-19T00:06:37;49.08;;;31.80;;
21022;SDS011;10669;51.076;3.714;2022-08-19T00:09:05;44.90;;;31.60;;
21022;SDS011;10669;51.076;3.714;2022-08-19T00:11:34;50.08;;;31.80;;
21022;SDS011;10669;51.076;3.714;2022-08-19T00:14:02;43.85;;;30.30;;
21022;SDS011;10669;51.076;3.714;2022-08-19T00:16:29;50.03;;;32.00;;
21022;SDS011;10669;51.076;3.714;2022-08-19T00:18:55;48.00;;;30.50;;
21022;SDS011;10669;51.076;3.714;2022-08-19T00:21:22;48.35;;;30.73;;
21022;SDS011;10669;51.076;3.714;2022-08-19T00:23:50;48.25;;;30.92;;
21022;SDS011;10669;51.076;3.714;2022-08-19T00:26:17;46.03;;;31.23;;
21022;SDS011;10669;51.076;3.714;2022-08-19T00:28:43;47.15;;;30.20;;
21022;SDS011;10669;51.076;3.714;2022-08-19T00:31:08;48.20;;;32.45;;
21022;SDS011;10669;51.076;3.714;2022-08-19T00:33:34;52.65;;;31.92;;
21022;SDS011;10669;51.076;3.714;2022-08-19T00:36:02;54.78;;;32.35;;
21022;SDS011;10669;51.076;3.714;2022-08-19T00:38:35;56.67;;;33.53;;
21022;SDS011;10669;51.076;3.714;2022-08-19T00:41:03;45.97;;;30.80;;
21022;SDS011;10669;51.076;3.714;2022-08-19T00:43:31;51.70;;;32.22;;
21022;SDS011;10669;51.076;3.714;2022-08-19T00:48:30;50.95;;;32.03;;
21022;SDS011;10669;51.076;3.714;2022-08-19T00:50:58;55.70;;;32.20;;
21022;SDS011;10669;51.076;3.714;2022-08-19T00:53:26;50.25;;;30.38;;
21022;SDS011;10669;51.076;3.714;2022-08-19T00:55:56;46.42;;;32.92;;
21022;SDS011;10669;51.076;3.714;2022-08-19T00:58:29;52.25;;;30.75;;
21022;SDS011;10669;51.076;3.714;2022-08-19T01:00:58;50.70;;;31.77;;
21022;SDS011;10669;51.076;3.714;2022-08-19T01:03:27;51.95;;;31.95;;
21022;SDS011;10669;51.076;3.714;2022-08-19T01:05:53;54.22;;;33.00;;
21022;SDS011;10669;51.076;3.714;2022-08-19T01:08:20;46.40;;;30.45;;
21022;SDS011;10669;51.076;3.714;2022-08-19T01:10:49;51.88;;;32.08;;
21022;SDS011;10669;51.076;3.714;2022-08-19T01:13:22;47.55;;;31.13;;
21022;SDS011;10669;51.076;3.714;2022-08-19T01:15:58;50.30;;;31.08;;
21022;SDS011;10669;51.076;3.714;2022-08-19T01:18:27;52.63;;;33.10;;
21022;SDS011;10669;51.076;3.714;2022-08-19T01:20:58;44.45;;;27.40;;
21022;SDS011;10669;51.076;3.714;2022-08-19T01:23:31;47.45;;;28.15;;
21022;SDS011;10669;51.076;3.714;2022-08-19T01:26:10;41.87;;;26.93;;
21022;SDS011;10669;51.076;3.714;2022-08-19T01:28:42;46.93;;;28.77;;
21022;SDS011;10669;51.076;3.714;2022-08-19T01:31:13;41.60;;;25.60;;
21022;SDS011;10669;51.076;3.714;2022-08-19T01:33:41;43.47;;;26.60;;
21022;SDS011;10669;51.076;3.714;2022-08-19T01:36:14;45.47;;;24.88;;
21022;SDS011;10669;51.076;3.714;2022-08-19T01:38:48;42.00;;;25.55;;
21022;SDS011;10669;51.076;3.714;2022-08-19T01:41:17;41.57;;;27.43;;
21022;SDS011;10669;51.076;3.714;2022-08-19T01:43:43;42.58;;;27.42;;
21022;SDS011;10669;51.076;3.714;2022-08-19T01:46:09;46.13;;;26.57;;
21022;SDS011;10669;51.076;3.714;2022-08-19T01:48:37;43.90;;;26.97;;
21022;SDS011;10669;51.076;3.714;2022-08-19T01:51:04;46.90;;;27.37;;
21022;SDS011;10669;51.076;3.714;2022-08-19T01:53:31;47.30;;;27.97;;
21022;SDS011;10669;51.076;3.714;2022-08-19T01:55:57;45.83;;;26.10;;
21022;SDS011;10669;51.076;3.714;2022-08-19T01:58:24;43.80;;;26.27;;
21022;SDS011;10669;51.076;3.714;2022-08-19T02:00:55;40.70;;;25.53;;
21022;SDS011;10669;51.076;3.714;2022-08-19T02:03:22;46.77;;;25.30;;
21022;SDS011;10669;51.076;3.714;2022-08-19T02:05:53;38.43;;;24.07;;
21022;SDS011;10669;51.076;3.714;2022-08-19T02:08:25;43.53;;;26.43;;
21022;SDS011;10669;51.076;3.714;2022-08-19T02:10:53;42.97;;;23.80;;
21022;SDS011;10669;51.076;3.714;2022-08-19T02:13:20;43.80;;;24.47;;
21022;SDS011;10669;51.076;3.714;2022-08-19T02:15:49;43.50;;;25.03;;
21022;SDS011;10669;51.076;3.714;2022-08-19T02:18:17;39.03;;;23.27;;
21022;SDS011;10669;51.076;3.714;2022-08-19T02:20:43;37.30;;;23.47;;
21022;SDS011;10669;51.076;3.714;2022-08-19T02:23:15;34.27;;;22.53;;
21022;SDS011;10669;51.076;3.714;2022-08-19T02:25:42;47.20;;;22.70;;
21022;SDS011;10669;51.076;3.714;2022-08-19T02:28:10;42.00;;;23.57;;
21022;SDS011;10669;51.076;3.714;2022-08-19T02:30:37;39.87;;;23.43;;
21022;SDS011;10669;51.076;3.714;2022-08-19T02:33:04;44.03;;;24.57;;
21022;SDS011;10669;51.076;3.714;2022-08-19T02:35:30;42.27;;;23.53;;
21022;SDS011;10669;51.076;3.714;2022-08-19T02:37:56;46.10;;;23.33;;
21022;SDS011;10669;51.076;3.714;2022-08-19T02:40:47;43.10;;;22.97;;
21022;SDS011;10669;51.076;3.714;2022-08-19T02:43:19;39.00;;;21.63;;
21022;SDS011;10669;51.076;3.714;2022-08-19T02:45:48;42.93;;;23.97;;
21022;SDS011;10669;51.076;3.714;2022-08-19T02:48:16;40.40;;;22.00;;
21022;SDS011;10669;51.076;3.714;2022-08-19T02:50:46;40.07;;;22.03;;
21022;SDS011;10669;51.076;3.714;2022-08-19T02:53:13;41.40;;;22.03;;
21022;SDS011;10669;51.076;3.714;2022-08-19T02:55:43;49.90;;;23.47;;
21022;SDS011;10669;51.076;3.714;2022-08-19T02:58:13;43.13;;;21.53;;
21022;SDS011;10669;51.076;3.714;2022-08-19T03:00:43;39.20;;;23.60;;
21022;SDS011;10669;51.076;3.714;2022-08-19T03:03:11;39.67;;;22.83;;
21022;SDS011;10669;51.076;3.714;2022-08-19T03:05:37;40.23;;;24.80;;
21022;SDS011;10669;51.076;3.714;2022-08-19T03:08:03;44.13;;;22.57;;
21022;SDS011;10669;51.076;3.714;2022-08-19T03:10:30;41.77;;;24.10;;
21022;SDS011;10669;51.076;3.714;2022-08-19T03:12:57;39.57;;;24.50;;
21022;SDS011;10669;51.076;3.714;2022-08-19T03:15:23;41.77;;;25.70;;
21022;SDS011;10669;51.076;3.714;2022-08-19T03:17:54;42.93;;;23.93;;
21022;SDS011;10669;51.076;3.714;2022-08-19T03:20:21;42.57;;;23.93;;
21022;SDS011;10669;51.076;3.714;2022-08-19T03:22:50;46.17;;;24.70;;
21022;SDS011;10669;51.076;3.714;2022-08-19T03:25:16;40.03;;;23.33;;
21022;SDS011;10669;51.076;3.714;2022-08-19T03:27:43;41.60;;;24.33;;
21022;SDS011;10669;51.076;3.714;2022-08-19T03:30:10;47.30;;;23.17;;
21022;SDS011;10669;51.076;3.714;2022-08-19T03:32:41;42.27;;;23.00;;
21022;SDS011;10669;51.076;3.714;2022-08-19T03:35:08;32.77;;;21.73;;
21022;SDS011;10669;51.076;3.714;2022-08-19T03:40:03;39.87;;;22.20;;
21022;SDS011;10669;51.076;3.714;2022-08-19T03:42:30;37.10;;;20.60;;
21022;SDS011;10669;51.076;3.714;2022-08-19T03:44:59;34.90;;;20.90;;
21022;SDS011;10669;51.076;3.714;2022-08-19T03:47:35;35.90;;;20.93;;
21022;SDS011;10669;51.076;3.714;2022-08-19T03:50:02;40.73;;;20.77;;
21022;SDS011;10669;51.076;3.714;2022-08-19T03:52:29;29.00;;;18.30;;
21022;SDS011;10669;51.076;3.714;2022-08-19T03:54:56;34.77;;;19.17;;
21022;SDS011;10669;51.076;3.714;2022-08-19T03:59:52;36.27;;;19.70;;
21022;SDS011;10669;51.076;3.714;2022-08-19T04:04:46;33.53;;;18.90;;
21022;SDS011;10669;51.076;3.714;2022-08-19T04:07:14;37.93;;;18.97;;
21022;SDS011;10669;51.076;3.714;2022-08-19T04:09:46;35.33;;;20.30;;
21022;SDS011;10669;51.076;3.714;2022-08-19T04:19:42;32.33;;;19.67;;
21022;SDS011;10669;51.076;3.714;2022-08-19T04:22:09;37.23;;;20.17;;
21022;SDS011;10669;51.076;3.714;2022-08-19T04:24:36;32.53;;;19.53;;
21022;SDS011;10669;51.076;3.714;2022-08-19T04:27:08;37.63;;;20.70;;
21022;SDS011;10669;51.076;3.714;2022-08-19T04:29:37;38.03;;;18.90;;
21022;SDS011;10669;51.076;3.714;2022-08-19T04:32:04;36.63;;;17.63;;
21022;SDS011;10669;51.076;3.714;2022-08-19T04:34:30;36.63;;;17.23;;
21022;SDS011;10669;51.076;3.714;2022-08-19T04:36:56;36.63;;;17.50;;
21022;SDS011;10669;51.076;3.714;2022-08-19T04:39:26;32.30;;;18.67;;
21022;SDS011;10669;51.076;3.714;2022-08-19T04:42:12;32.70;;;16.93;;
21022;SDS011;10669;51.076;3.714;2022-08-19T04:45:00;36.40;;;19.03;;
21022;SDS011;10669;51.076;3.714;2022-08-19T04:47:29;29.87;;;17.70;;
21022;SDS011;10669;51.076;3.714;2022-08-19T04:49:55;30.57;;;18.33;;
21022;SDS011;10669;51.076;3.714;2022-08-19T04:52:28;34.23;;;18.57;;
21022;SDS011;10669;51.076;3.714;2022-08-19T04:54:58;38.43;;;19.63;;
21022;SDS011;10669;51.076;3.714;2022-08-19T04:57:26;33.73;;;19.00;;
21022;SDS011;10669;51.076;3.714;2022-08-19T04:59:55;35.80;;;18.07;;
21022;SDS011;10669;51.076;3.714;2022-08-19T05:02:23;30.13;;;18.47;;
21022;SDS011;10669;51.076;3.714;2022-08-19T05:07:23;35.63;;;17.00;;
21022;SDS011;10669;51.076;3.714;2022-08-19T05:09:49;30.03;;;17.43;;
21022;SDS011;10669;51.076;3.714;2022-08-19T05:12:15;34.83;;;19.17;;
21022;SDS011;10669;51.076;3.714;2022-08-19T05:14:42;29.93;;;17.10;;
21022;SDS011;10669;51.076;3.714;2022-08-19T05:17:11;31.87;;;17.17;;
21022;SDS011;10669;51.076;3.714;2022-08-19T05:19:36;31.10;;;17.07;;
21022;SDS011;10669;51.076;3.714;2022-08-19T05:22:21;35.63;;;18.10;;
21022;SDS011;10669;51.076;3.714;2022-08-19T05:25:05;33.57;;;16.90;;
21022;SDS011;10669;51.076;3.714;2022-08-19T05:27:35;37.17;;;17.17;;
21022;SDS011;10669;51.076;3.714;2022-08-19T05:32:33;30.60;;;16.50;;
21022;SDS011;10669;51.076;3.714;2022-08-19T05:35:02;26.33;;;16.30;;
21022;SDS011;10669;51.076;3.714;2022-08-19T05:37:32;25.33;;;15.27;;
21022;SDS011;10669;51.076;3.714;2022-08-19T05:39:59;32.13;;;15.97;;
21022;SDS011;10669;51.076;3.714;2022-08-19T05:42:25;31.17;;;15.33;;
21022;SDS011;10669;51.076;3.714;2022-08-19T05:44:51;26.93;;;15.30;;
21022;SDS011;10669;51.076;3.714;2022-08-19T05:47:18;27.40;;;15.80;;
21022;SDS011;10669;51.076;3.714;2022-08-19T05:49:45;41.33;;;17.30;;
21022;SDS011;10669;51.076;3.714;2022-08-19T05:52:13;32.50;;;16.13;;
21022;SDS011;10669;51.076;3.714;2022-08-19T05:54:41;34.43;;;17.07;;
21022;SDS011;10669;51.076;3.714;2022-08-19T05:57:08;32.10;;;16.33;;
21022;SDS011;10669;51.076;3.714;2022-08-19T05:59:37;36.60;;;17.77;;
21022;SDS011;10669;51.076;3.714;2022-08-19T06:04:33;30.30;;;16.27;;
21022;SDS011;10669;51.076;3.714;2022-08-19T06:07:02;39.87;;;18.17;;
21022;SDS011;10669;51.076;3.714;2022-08-19T06:09:29;34.83;;;17.13;;
21022;SDS011;10669;51.076;3.714;2022-08-19T06:11:58;31.20;;;17.50;;
21022;SDS011;10669;51.076;3.714;2022-08-19T06:14:32;40.67;;;18.30;;
21022;SDS011;10669;51.076;3.714;2022-08-19T06:16:59;32.47;;;17.65;;
21022;SDS011;10669;51.076;3.714;2022-08-19T06:19:27;32.65;;;18.48;;
21022;SDS011;10669;51.076;3.714;2022-08-19T06:21:55;37.03;;;21.70;;
21022;SDS011;10669;51.076;3.714;2022-08-19T06:24:24;36.08;;;18.92;;
21022;SDS011;10669;51.076;3.714;2022-08-19T06:26:53;30.02;;;19.48;;
21022;SDS011;10669;51.076;3.714;2022-08-19T06:29:22;31.10;;;18.23;;
21022;SDS011;10669;51.076;3.714;2022-08-19T06:31:50;38.33;;;19.42;;
21022;SDS011;10669;51.076;3.714;2022-08-19T06:34:17;32.97;;;17.27;;
21022;SDS011;10669;51.076;3.714;2022-08-19T06:36:45;28.65;;;17.25;;
21022;SDS011;10669;51.076;3.714;2022-08-19T06:39:14;34.00;;;16.60;;
21022;SDS011;10669;51.076;3.714;2022-08-19T06:41:49;31.17;;;17.27;;
21022;SDS011;10669;51.076;3.714;2022-08-19T06:44:20;25.55;;;16.67;;
21022;SDS011;10669;51.076;3.714;2022-08-19T06:46:48;25.92;;;16.65;;
21022;SDS011;10669;51.076;3.714;2022-08-19T06:49:14;29.33;;;16.30;;
21022;SDS011;10669;51.076;3.714;2022-08-19T06:51:42;24.55;;;16.13;;
21022;SDS011;10669;51.076;3.714;2022-08-19T06:54:09;26.08;;;14.43;;
21022;SDS011;10669;51.076;3.714;2022-08-19T06:56:35;23.27;;;13.90;;
21022;SDS011;10669;51.076;3.714;2022-08-19T06:59:07;20.02;;;14.13;;
21022;SDS011;10669;51.076;3.714;2022-08-19T07:01:45;24.65;;;14.13;;
21022;SDS011;10669;51.076;3.714;2022-08-19T07:04:15;27.08;;;13.70;;
21022;SDS011;10669;51.076;3.714;2022-08-19T07:06:43;17.75;;;13.70;;
21022;SDS011;10669;51.076;3.714;2022-08-19T07:09:10;20.58;;;13.85;;
21022;SDS011;10669;51.076;3.714;2022-08-19T07:11:41;22.20;;;13.00;;
21022;SDS011;10669;51.076;3.714;2022-08-19T07:14:09;18.13;;;13.57;;
21022;SDS011;10669;51.076;3.714;2022-08-19T07:16:35;27.33;;;13.95;;
21022;SDS011;10669;51.076;3.714;2022-08-19T07:19:00;21.95;;;13.90;;
21022;SDS011;10669;51.076;3.714;2022-08-19T07:21:26;25.30;;;14.98;;
21022;SDS011;10669;51.076;3.714;2022-08-19T07:23:54;25.20;;;14.77;;
21022;SDS011;10669;51.076;3.714;2022-08-19T07:26:22;25.10;;;17.05;;
21022;SDS011;10669;51.076;3.714;2022-08-19T07:28:50;20.00;;;15.70;;
21022;SDS011;10669;51.076;3.714;2022-08-19T07:31:18;23.40;;;15.90;;
21022;SDS011;10669;51.076;3.714;2022-08-19T07:33:46;25.15;;;15.75;;
21022;SDS011;10669;51.076;3.714;2022-08-19T07:36:13;25.13;;;15.07;;
21022;SDS011;10669;51.076;3.714;2022-08-19T07:38:43;23.38;;;15.90;;
21022;SDS011;10669;51.076;3.714;2022-08-19T07:41:14;24.02;;;16.67;;
21022;SDS011;10669;51.076;3.714;2022-08-19T07:43:42;24.05;;;15.77;;
21022;SDS011;10669;51.076;3.714;2022-08-19T07:46:09;25.13;;;15.52;;
21022;SDS011;10669;51.076;3.714;2022-08-19T07:48:35;24.08;;;16.42;;
21022;SDS011;10669;51.076;3.714;2022-08-19T07:51:02;21.02;;;15.98;;
21022;SDS011;10669;51.076;3.714;2022-08-19T07:53:30;27.27;;;16.55;;
21022;SDS011;10669;51.076;3.714;2022-08-19T07:56:00;27.23;;;19.52;;
21022;SDS011;10669;51.076;3.714;2022-08-19T07:58:29;50.78;;;28.77;;
21022;SDS011;10669;51.076;3.714;2022-08-19T08:01:02;31.10;;;22.15;;
21022;SDS011;10669;51.076;3.714;2022-08-19T08:03:29;35.22;;;22.52;;
21022;SDS011;10669;51.076;3.714;2022-08-19T08:06:14;25.40;;;17.38;;
21022;SDS011;10669;51.076;3.714;2022-08-19T08:08:59;33.30;;;20.23;;
21022;SDS011;10669;51.076;3.714;2022-08-19T08:11:53;30.60;;;18.92;;
21022;SDS011;10669;51.076;3.714;2022-08-19T08:14:23;31.38;;;18.65;;
21022;SDS011;10669;51.076;3.714;2022-08-19T08:16:51;26.90;;;17.73;;
21022;SDS011;10669;51.076;3.714;2022-08-19T08:19:21;29.33;;;17.25;;
21022;SDS011;10669;51.076;3.714;2022-08-19T08:21:50;29.30;;;16.10;;
21022;SDS011;10669;51.076;3.714;2022-08-19T08:24:16;27.20;;;17.13;;
21022;SDS011;10669;51.076;3.714;2022-08-19T08:26:43;22.92;;;16.05;;
21022;SDS011;10669;51.076;3.714;2022-08-19T08:29:12;23.15;;;15.95;;
21022;SDS011;10669;51.076;3.714;2022-08-19T08:31:41;23.13;;;15.23;;
21022;SDS011;10669;51.076;3.714;2022-08-19T08:34:07;22.27;;;14.82;;
21022;SDS011;10669;51.076;3.714;2022-08-19T08:36:38;24.42;;;16.17;;
21022;SDS011;10669;51.076;3.714;2022-08-19T08:39:08;24.27;;;16.20;;
21022;SDS011;10669;51.076;3.714;2022-08-19T08:41:37;19.73;;;14.07;;
21022;SDS011;10669;51.076;3.714;2022-08-19T08:44:32;20.88;;;14.07;;
21022;SDS011;10669;51.076;3.714;2022-08-19T08:47:14;19.50;;;14.77;;
21022;SDS011;10669;51.076;3.714;2022-08-19T08:52:26;18.00;;;14.98;;
21022;SDS011;10669;51.076;3.714;2022-08-19T08:55:15;16.88;;;14.43;;
21022;SDS011;10669;51.076;3.714;2022-08-19T09:00:18;20.60;;;14.05;;
21022;SDS011;10669;51.076;3.714;2022-08-19T09:02:45;15.65;;;12.00;;
21022;SDS011;10669;51.076;3.714;2022-08-19T09:05:11;16.20;;;12.63;;
21022;SDS011;10669;51.076;3.714;2022-08-19T09:10:46;15.60;;;11.85;;
21022;SDS011;10669;51.076;3.714;2022-08-19T09:16:06;10.60;;;8.50;;
21022;SDS011;10669;51.076;3.714;2022-08-19T09:18:47;14.07;;;9.45;;
21022;SDS011;10669;51.076;3.714;2022-08-19T09:21:17;11.68;;;9.55;;
21022;SDS011;10669;51.076;3.714;2022-08-19T09:23:45;17.17;;;10.48;;
21022;SDS011;10669;51.076;3.714;2022-08-19T09:26:13;10.35;;;7.50;;
21022;SDS011;10669;51.076;3.714;2022-08-19T09:28:41;14.23;;;6.85;;
21022;SDS011;10669;51.076;3.714;2022-08-19T09:31:11;11.15;;;7.05;;
21022;SDS011;10669;51.076;3.714;2022-08-19T09:33:38;7.05;;;6.22;;
21022;SDS011;10669;51.076;3.714;2022-08-19T09:36:07;9.63;;;6.20;;
21022;SDS011;10669;51.076;3.714;2022-08-19T09:38:35;6.00;;;5.40;;
21022;SDS011;10669;51.076;3.714;2022-08-19T09:41:06;7.90;;;5.75;;
21022;SDS011;10669;51.076;3.714;2022-08-19T09:43:37;8.52;;;5.32;;
21022;SDS011;10669;51.076;3.714;2022-08-19T09:46:03;7.53;;;4.75;;
21022;SDS011;10669;51.076;3.714;2022-08-19T09:48:40;8.52;;;5.05;;
21022;SDS011;10669;51.076;3.714;2022-08-19T09:51:11;9.77;;;6.18;;
21022;SDS011;10669;51.076;3.714;2022-08-19T09:53:44;7.22;;;4.80;;
21022;SDS011;10669;51.076;3.714;2022-08-19T09:56:12;7.97;;;5.07;;
21022;SDS011;10669;51.076;3.714;2022-08-19T09:58:38;6.70;;;4.25;;
21022;SDS011;10669;51.076;3.714;2022-08-19T10:01:05;5.90;;;4.40;;
21022;SDS011;10669;51.076;3.714;2022-08-19T10:03:32;6.90;;;4.05;;
21022;SDS011;10669;51.076;3.714;2022-08-19T10:06:01;7.57;;;3.70;;
21022;SDS011;10669;51.076;3.714;2022-08-19T10:08:30;7.88;;;3.85;;
21022;SDS011;10669;51.076;3.714;2022-08-19T10:10:58;5.97;;;3.38;;
21022;SDS011;10669;51.076;3.714;2022-08-19T10:13:26;6.60;;;2.83;;
21022;SDS011;10669;51.076;3.714;2022-08-19T10:15:54;5.28;;;3.08;;
21022;SDS011;10669;51.076;3.714;2022-08-19T10:18:26;5.90;;;3.20;;
21022;SDS011;10669;51.076;3.714;2022-08-19T10:21:01;4.68;;;3.13;;
21022;SDS011;10669;51.076;3.714;2022-08-19T10:23:33;5.90;;;3.40;;
21022;SDS011;10669;51.076;3.714;2022-08-19T10:26:02;5.13;;;2.83;;
21022;SDS011;10669;51.076;3.714;2022-08-19T10:28:31;4.55;;;3.72;;
21022;SDS011;10669;51.076;3.714;2022-08-19T10:31:06;3.70;;;3.17;;
21022;SDS011;10669;51.076;3.714;2022-08-19T10:33:33;3.05;;;2.63;;
21022;SDS011;10669;51.076;3.714;2022-08-19T10:36:00;6.25;;;2.70;;
21022;SDS011;10669;51.076;3.714;2022-08-19T10:38:27;4.75;;;3.17;;
21022;SDS011;10669;51.076;3.714;2022-08-19T10:40:53;5.47;;;2.83;;
21022;SDS011;10669;51.076;3.714;2022-08-19T10:43:19;4.05;;;2.97;;
21022;SDS011;10669;51.076;3.714;2022-08-19T10:45:48;3.70;;;2.80;;
21022;SDS011;10669;51.076;3.714;2022-08-19T10:48:18;4.72;;;3.15;;
21022;SDS011;10669;51.076;3.714;2022-08-19T10:50:44;3.53;;;2.78;;
21022;SDS011;10669;51.076;3.714;2022-08-19T10:53:28;4.35;;;2.88;;
21022;SDS011;10669;51.076;3.714;2022-08-19T10:55:54;7.30;;;3.40;;
21022;SDS011;10669;51.076;3.714;2022-08-19T10:58:38;6.20;;;3.80;;
21022;SDS011;10669;51.076;3.714;2022-08-19T11:01:03;4.70;;;4.10;;
21022;SDS011;10669;51.076;3.714;2022-08-19T11:03:29;5.25;;;4.30;;
21022;SDS011;10669;51.076;3.714;2022-08-19T11:08:25;7.35;;;3.92;;
21022;SDS011;10669;51.076;3.714;2022-08-19T11:10:52;6.22;;;4.10;;
21022;SDS011;10669;51.076;3.714;2022-08-19T11:13:21;5.95;;;4.03;;
21022;SDS011;10669;51.076;3.714;2022-08-19T11:15:55;6.28;;;4.15;;
21022;SDS011;10669;51.076;3.714;2022-08-19T11:18:30;5.22;;;4.43;;
21022;SDS011;10669;51.076;3.714;2022-08-19T11:21:04;9.02;;;4.43;;
21022;SDS011;10669;51.076;3.714;2022-08-19T11:23:42;7.88;;;5.20;;
21022;SDS011;10669;51.076;3.714;2022-08-19T11:26:08;5.28;;;4.72;;
21022;SDS011;10669;51.076;3.714;2022-08-19T11:28:34;7.72;;;5.50;;
21022;SDS011;10669;51.076;3.714;2022-08-19T11:31:01;7.82;;;6.00;;
21022;SDS011;10669;51.076;3.714;2022-08-19T11:33:28;6.60;;;6.00;;
21022;SDS011;10669;51.076;3.714;2022-08-19T11:35:58;7.50;;;6.38;;
21022;SDS011;10669;51.076;3.714;2022-08-19T11:38:26;7.82;;;5.80;;
21022;SDS011;10669;51.076;3.714;2022-08-19T11:40:58;8.77;;;5.10;;
21022;SDS011;10669;51.076;3.714;2022-08-19T11:43:26;7.15;;;4.78;;
21022;SDS011;10669;51.076;3.714;2022-08-19T11:45:53;4.97;;;3.80;;
21022;SDS011;10669;51.076;3.714;2022-08-19T11:48:20;7.00;;;4.03;;
21022;SDS011;10669;51.076;3.714;2022-08-19T11:50:51;5.50;;;3.63;;
21022;SDS011;10669;51.076;3.714;2022-08-19T11:53:20;4.70;;;4.30;;
21022;SDS011;10669;51.076;3.714;2022-08-19T11:55:46;4.07;;;3.60;;
21022;SDS011;10669;51.076;3.714;2022-08-19T11:58:13;6.65;;;3.15;;
21022;SDS011;10669;51.076;3.714;2022-08-19T12:00:40;5.78;;;3.45;;
21022;SDS011;10669;51.076;3.714;2022-08-19T12:03:06;3.63;;;2.90;;
21022;SDS011;10669;51.076;3.714;2022-08-19T12:05:32;6.38;;;2.72;;
21022;SDS011;10669;51.076;3.714;2022-08-19T12:07:58;4.97;;;3.53;;
21022;SDS011;10669;51.076;3.714;2022-08-19T12:10:24;8.52;;;4.38;;
21022;SDS011;10669;51.076;3.714;2022-08-19T12:12:49;7.43;;;4.70;;
21022;SDS011;10669;51.076;3.714;2022-08-19T12:15:15;6.82;;;4.13;;
21022;SDS011;10669;51.076;3.714;2022-08-19T12:17:41;8.20;;;4.60;;
21022;SDS011;10669;51.076;3.714;2022-08-19T12:20:08;6.55;;;4.65;;
21022;SDS011;10669;51.076;3.714;2022-08-19T12:22:36;4.97;;;4.50;;
21022;SDS011;10669;51.076;3.714;2022-08-19T12:25:04;5.13;;;4.57;;
21022;SDS011;10669;51.076;3.714;2022-08-19T12:27:31;6.18;;;4.50;;
21022;SDS011;10669;51.076;3.714;2022-08-19T12:29:56;4.40;;;4.00;;
21022;SDS011;10669;51.076;3.714;2022-08-19T12:32:23;5.05;;;4.53;;
21022;SDS011;10669;51.076;3.714;2022-08-19T12:34:50;5.88;;;3.60;;
21022;SDS011;10669;51.076;3.714;2022-08-19T12:37:16;8.15;;;4.40;;
21022;SDS011;10669;51.076;3.714;2022-08-19T12:39:42;5.38;;;3.92;;
21022;SDS011;10669;51.076;3.714;2022-08-19T12:42:09;5.97;;;3.03;;
21022;SDS011;10669;51.076;3.714;2022-08-19T12:44:36;4.60;;;3.72;;
21022;SDS011;10669;51.076;3.714;2022-08-19T12:47:03;4.25;;;3.50;;
21022;SDS011;10669;51.076;3.714;2022-08-19T12:49:29;3.30;;;3.00;;
21022;SDS011;10669;51.076;3.714;2022-08-19T12:51:56;5.00;;;2.60;;
21022;SDS011;10669;51.076;3.714;2022-08-19T12:54:23;3.05;;;2.53;;
21022;SDS011;10669;51.076;3.714;2022-08-19T12:56:49;2.50;;;2.25;;
21022;SDS011;10669;51.076;3.714;2022-08-19T12:59:14;5.07;;;2.20;;
21022;SDS011;10669;51.076;3.714;2022-08-19T13:01:42;2.30;;;2.10;;
21022;SDS011;10669;51.076;3.714;2022-08-19T13:04:09;3.58;;;2.25;;
21022;SDS011;10669;51.076;3.714;2022-08-19T13:06:35;3.67;;;1.88;;
21022;SDS011;10669;51.076;3.714;2022-08-19T13:09:01;3.92;;;2.50;;
21022;SDS011;10669;51.076;3.714;2022-08-19T13:11:28;2.33;;;1.90;;
21022;SDS011;10669;51.076;3.714;2022-08-19T13:13:57;2.63;;;1.80;;
21022;SDS011;10669;51.076;3.714;2022-08-19T13:16:23;4.63;;;1.73;;
21022;SDS011;10669;51.076;3.714;2022-08-19T13:18:49;3.25;;;1.70;;
21022;SDS011;10669;51.076;3.714;2022-08-19T13:21:18;7.07;;;2.42;;
21022;SDS011;10669;51.076;3.714;2022-08-19T13:23:46;5.88;;;3.03;;
21022;SDS011;10669;51.076;3.714;2022-08-19T13:26:13;11.30;;;3.85;;
21022;SDS011;10669;51.076;3.714;2022-08-19T13:28:39;5.25;;;2.92;;
21022;SDS011;10669;51.076;3.714;2022-08-19T13:31:25;5.32;;;2.15;;
21022;SDS011;10669;51.076;3.714;2022-08-19T13:34:11;6.35;;;1.65;;
21022;SDS011;10669;51.076;3.714;2022-08-19T13:36:37;6.18;;;1.75;;
21022;SDS011;10669;51.076;3.714;2022-08-19T13:39:04;1.50;;;1.08;;
21022;SDS011;10669;51.076;3.714;2022-08-19T13:41:30;2.80;;;1.50;;
21022;SDS011;10669;51.076;3.714;2022-08-19T13:43:56;2.72;;;1.40;;
21022;SDS011;10669;51.076;3.714;2022-08-19T13:46:23;6.13;;;1.58;;
21022;SDS011;10669;51.076;3.714;2022-08-19T13:48:49;3.08;;;1.20;;
21022;SDS011;10669;51.076;3.714;2022-08-19T13:51:15;5.20;;;1.45;;
21022;SDS011;10669;51.076;3.714;2022-08-19T13:53:41;6.72;;;1.85;;
21022;SDS011;10669;51.076;3.714;2022-08-19T13:56:09;7.43;;;2.20;;
21022;SDS011;10669;51.076;3.714;2022-08-19T13:58:36;4.10;;;2.30;;
21022;SDS011;10669;51.076;3.714;2022-08-19T14:01:03;5.53;;;2.75;;
21022;SDS011;10669;51.076;3.714;2022-08-19T14:03:29;8.32;;;2.70;;
21022;SDS011;10669;51.076;3.714;2022-08-19T14:05:56;7.45;;;3.00;;
21022;SDS011;10669;51.076;3.714;2022-08-19T14:08:21;6.50;;;4.05;;
21022;SDS011;10669;51.076;3.714;2022-08-19T14:10:47;6.10;;;4.63;;
21022;SDS011;10669;51.076;3.714;2022-08-19T14:13:15;5.80;;;5.15;;
21022;SDS011;10669;51.076;3.714;2022-08-19T14:15:42;10.70;;;5.57;;
21022;SDS011;10669;51.076;3.714;2022-08-19T14:18:08;10.00;;;5.53;;
21022;SDS011;10669;51.076;3.714;2022-08-19T14:20:34;7.60;;;5.85;;
21022;SDS011;10669;51.076;3.714;2022-08-19T14:23:00;10.70;;;5.40;;
21022;SDS011;10669;51.076;3.714;2022-08-19T14:25:27;8.02;;;6.10;;
21022;SDS011;10669;51.076;3.714;2022-08-19T14:27:54;9.43;;;6.63;;
21022;SDS011;10669;51.076;3.714;2022-08-19T14:30:22;11.40;;;7.43;;
21022;SDS011;10669;51.076;3.714;2022-08-19T14:32:53;12.77;;;8.13;;
21022;SDS011;10669;51.076;3.714;2022-08-19T14:35:20;10.73;;;7.50;;
21022;SDS011;10669;51.076;3.714;2022-08-19T14:37:47;14.55;;;7.07;;
21022;SDS011;10669;51.076;3.714;2022-08-19T14:40:15;8.43;;;7.63;;
21022;SDS011;10669;51.076;3.714;2022-08-19T14:42:43;16.20;;;6.43;;
21022;SDS011;10669;51.076;3.714;2022-08-19T14:45:09;12.63;;;6.10;;
21022;SDS011;10669;51.076;3.714;2022-08-19T14:47:36;6.95;;;5.82;;
21022;SDS011;10669;51.076;3.714;2022-08-19T14:50:03;8.60;;;5.93;;
21022;SDS011;10669;51.076;3.714;2022-08-19T14:52:31;7.80;;;5.68;;
21022;SDS011;10669;51.076;3.714;2022-08-19T14:54:57;7.97;;;6.30;;
21022;SDS011;10669;51.076;3.714;2022-08-19T14:57:22;12.13;;;5.80;;
21022;SDS011;10669;51.076;3.714;2022-08-19T14:59:48;9.50;;;5.43;;
21022;SDS011;10669;51.076;3.714;2022-08-19T15:02:15;8.73;;;5.38;;
21022;SDS011;10669;51.076;3.714;2022-08-19T15:04:40;12.25;;;5.43;;
21022;SDS011;10669;51.076;3.714;2022-08-19T15:07:06;7.60;;;5.18;;
21022;SDS011;10669;51.076;3.714;2022-08-19T15:09:32;7.47;;;4.68;;
21022;SDS011;10669;51.076;3.714;2022-08-19T15:11:58;7.10;;;4.18;;
21022;SDS011;10669;51.076;3.714;2022-08-19T15:14:25;6.70;;;4.63;;
21022;SDS011;10669;51.076;3.714;2022-08-19T15:16:51;10.55;;;4.32;;
21022;SDS011;10669;51.076;3.714;2022-08-19T15:19:18;9.27;;;3.53;;